Station Historical Data
Daily Summary for March 20, 2012 Units:  Both    English   Metric
« Previous Day
Next Day »
Daily Weekly Monthly Yearly Custom
  High: Low: Average:
Temperature: 81.9 °F /  27.7 °C 61.4 °F /  16.3 °C 72 °F /  22.2 °C
Dew Point: 61.7 °F /  16.5 °C 55.1 °F /  12.8 °C 57.4 °F /  14.1 °C
Humidity: 82% 44% 61%
Wind Speed: 19.0mph /  30.6km/h - 6.9mph /  11.1km/h
Wind Gust: 27.0mph /  43.5km/h - -
Wind- - ESE
Pressure: 30.05 in /  1017.5 hPa 29.92 in /  1013.1 hPa -
Precipitation: 0.00 in /  0 mm    
Historical Graphs
 
 
Tabular Data for March 20, 2012
Time Temperature Dew Point Pressure Wind Wind Speed Wind Gust Humidity Rainfall Rate (Hourly) Conditions
00:00 70.3 °F /  21.3 °C 56.2 °F /  13.4 °C 29.99in /  1015.5hPa SE 2.0mph /  3.2km/h 7.0mph /  11.3km/h 61% 0.00in /  0mm
00:01 70.3 °F /  21.3 °C 56.2 °F /  13.4 °C 29.99in /  1015.5hPa ESE 4.0mph /  6.4km/h 5.0mph /  8km/h 61% 0.00in /  0mm
00:06 70.1 °F /  21.2 °C 56.5 °F /  13.6 °C 29.99in /  1015.5hPa SE 3.0mph /  4.8km/h 5.0mph /  8km/h 62% 0.00in /  0mm
00:11 69.9 °F /  21.1 °C 56.3 °F /  13.5 °C 29.99in /  1015.5hPa SE 4.0mph /  6.4km/h 6.0mph /  9.7km/h 62% 0.00in /  0mm
00:16 69.5 °F /  20.8 °C 56.4 °F /  13.6 °C 29.99in /  1015.5hPa ESE 4.0mph /  6.4km/h 6.0mph /  9.7km/h 63% 0.00in /  0mm
00:21 69.1 °F /  20.6 °C 56.4 °F /  13.6 °C 29.98in /  1015.1hPa SE 5.0mph /  8km/h 7.0mph /  11.3km/h 64% 0.00in /  0mm
00:26 68.8 °F /  20.4 °C 56.1 °F /  13.4 °C 29.98in /  1015.1hPa ESE 5.0mph /  8km/h 6.0mph /  9.7km/h 64% 0.00in /  0mm
00:31 68.6 °F /  20.3 °C 56.4 °F /  13.6 °C 29.98in /  1015.1hPa ESE 4.0mph /  6.4km/h 5.0mph /  8km/h 65% 0.00in /  0mm
00:36 68.5 °F /  20.3 °C 56.3 °F /  13.5 °C 29.98in /  1015.1hPa ESE 4.0mph /  6.4km/h 4.0mph /  6.4km/h 65% 0.00in /  0mm
00:41 68.3 °F /  20.2 °C 56.1 °F /  13.4 °C 29.98in /  1015.1hPa ESE 3.0mph /  4.8km/h 4.0mph /  6.4km/h 65% 0.00in /  0mm
00:46 67.8 °F /  19.9 °C 56.0 °F /  13.3 °C 29.98in /  1015.1hPa ESE 4.0mph /  6.4km/h 5.0mph /  8km/h 66% 0.00in /  0mm
00:51 67.5 °F /  19.7 °C 56.2 °F /  13.4 °C 29.98in /  1015.1hPa SE 2.0mph /  3.2km/h 3.0mph /  4.8km/h 67% 0.00in /  0mm
00:56 67.5 °F /  19.7 °C 56.2 °F /  13.4 °C 29.98in /  1015.1hPa ESE 3.0mph /  4.8km/h 4.0mph /  6.4km/h 67% 0.00in /  0mm
01:01 67.4 °F /  19.7 °C 56.1 °F /  13.4 °C 29.98in /  1015.1hPa SE 3.0mph /  4.8km/h 4.0mph /  6.4km/h 67% 0.00in /  0mm
01:06 67.5 °F /  19.7 °C 56.2 °F /  13.4 °C 29.98in /  1015.1hPa SE 3.0mph /  4.8km/h 4.0mph /  6.4km/h 67% 0.00in /  0mm
01:11 67.7 °F /  19.8 °C 56.4 °F /  13.6 °C 29.98in /  1015.1hPa ESE 2.0mph /  3.2km/h 6.0mph /  9.7km/h 67% 0.00in /  0mm
01:16 67.7 °F /  19.8 °C 56.4 °F /  13.6 °C 29.98in /  1015.1hPa ESE 4.0mph /  6.4km/h 5.0mph /  8km/h 67% 0.00in /  0mm
01:21 67.7 °F /  19.8 °C 56.4 °F /  13.6 °C 29.98in /  1015.1hPa SE 3.0mph /  4.8km/h 7.0mph /  11.3km/h 67% 0.00in /  0mm
01:26 67.6 °F /  19.8 °C 56.3 °F /  13.5 °C 29.98in /  1015.1hPa SE 4.0mph /  6.4km/h 5.0mph /  8km/h 67% 0.00in /  0mm
01:31 67.7 °F /  19.8 °C 56.4 °F /  13.6 °C 29.98in /  1015.1hPa SE 4.0mph /  6.4km/h 6.0mph /  9.7km/h 67% 0.00in /  0mm
01:36 67.7 °F /  19.8 °C 56.4 °F /  13.6 °C 29.98in /  1015.1hPa ESE 4.0mph /  6.4km/h 5.0mph /  8km/h 67% 0.00in /  0mm
01:41 67.8 °F /  19.9 °C 56.5 °F /  13.6 °C 29.98in /  1015.1hPa SE 4.0mph /  6.4km/h 6.0mph /  9.7km/h 67% 0.00in /  0mm
01:46 67.7 °F /  19.8 °C 56.4 °F /  13.6 °C 29.98in /  1015.1hPa ESE 4.0mph /  6.4km/h 5.0mph /  8km/h 67% 0.00in /  0mm
01:51 67.7 °F /  19.8 °C 56.4 °F /  13.6 °C 29.97in /  1014.8hPa ESE 3.0mph /  4.8km/h 6.0mph /  9.7km/h 67% 0.00in /  0mm
01:57 67.5 °F /  19.7 °C 56.2 °F /  13.4 °C 29.97in /  1014.8hPa ESE 3.0mph /  4.8km/h 5.0mph /  8km/h 67% 0.00in /  0mm
02:02 67.3 °F /  19.6 °C 56.4 °F /  13.6 °C 29.97in /  1014.8hPa SE 4.0mph /  6.4km/h 5.0mph /  8km/h 68% 0.00in /  0mm
02:07 67.3 °F /  19.6 °C 56.4 °F /  13.6 °C 29.97in /  1014.8hPa ESE 3.0mph /  4.8km/h 6.0mph /  9.7km/h 68% 0.00in /  0mm
02:12 67.2 °F /  19.6 °C 56.3 °F /  13.5 °C 29.97in /  1014.8hPa SE 4.0mph /  6.4km/h 5.0mph /  8km/h 68% 0.00in /  0mm
02:17 67.0 °F /  19.4 °C 56.1 °F /  13.4 °C 29.97in /  1014.8hPa SE 4.0mph /  6.4km/h 5.0mph /  8km/h 68% 0.00in /  0mm
02:22 67.1 °F /  19.5 °C 56.2 °F /  13.4 °C 29.97in /  1014.8hPa SE 4.0mph /  6.4km/h 6.0mph /  9.7km/h 68% 0.00in /  0mm
02:27 67.0 °F /  19.4 °C 56.5 °F /  13.6 °C 29.97in /  1014.8hPa SE 4.0mph /  6.4km/h 5.0mph /  8km/h 69% 0.00in /  0mm
02:32 67.0 °F /  19.4 °C 56.5 °F /  13.6 °C 29.97in /  1014.8hPa SE 5.0mph /  8km/h 6.0mph /  9.7km/h 69% 0.00in /  0mm
02:37 67.2 °F /  19.6 °C 56.7 °F /  13.7 °C 29.97in /  1014.8hPa SSE 4.0mph /  6.4km/h 6.0mph /  9.7km/h 69% 0.00in /  0mm
02:42 67.2 °F /  19.6 °C 56.7 °F /  13.7 °C 29.97in /  1014.8hPa SE 4.0mph /  6.4km/h 6.0mph /  9.7km/h 69% 0.00in /  0mm
02:47 67.2 °F /  19.6 °C 56.7 °F /  13.7 °C 29.97in /  1014.8hPa SE 3.0mph /  4.8km/h 6.0mph /  9.7km/h 69% 0.00in /  0mm
02:52 67.3 °F /  19.6 °C 56.8 °F /  13.8 °C 29.97in /  1014.8hPa SE 4.0mph /  6.4km/h 6.0mph /  9.7km/h 69% 0.00in /  0mm
02:57 67.3 °F /  19.6 °C 56.8 °F /  13.8 °C 29.98in /  1015.1hPa SE 3.0mph /  4.8km/h 5.0mph /  8km/h 69% 0.00in /  0mm
03:02 67.2 °F /  19.6 °C 56.7 °F /  13.7 °C 29.98in /  1015.1hPa SE 4.0mph /  6.4km/h 6.0mph /  9.7km/h 69% 0.00in /  0mm
03:07 67.1 °F /  19.5 °C 56.6 °F /  13.7 °C 29.98in /  1015.1hPa SE 3.0mph /  4.8km/h 5.0mph /  8km/h 69% 0.00in /  0mm
03:12 67.1 °F /  19.5 °C 56.6 °F /  13.7 °C 29.98in /  1015.1hPa SE 4.0mph /  6.4km/h 6.0mph /  9.7km/h 69% 0.00in /  0mm
03:17 67.2 °F /  19.6 °C 56.7 °F /  13.7 °C 29.98in /  1015.1hPa SE 4.0mph /  6.4km/h 5.0mph /  8km/h 69% 0.00in /  0mm
03:22 67.1 °F /  19.5 °C 56.6 °F /  13.7 °C 29.98in /  1015.1hPa SE 5.0mph /  8km/h 5.0mph /  8km/h 69% 0.00in /  0mm
03:25 67.1 °F /  19.5 °C 56.6 °F /  13.7 °C 29.98in /  1015.1hPa SE 4.0mph /  6.4km/h 5.0mph /  8km/h 69% 0.00in /  0mm
03:30 67.2 °F /  19.6 °C 56.7 °F /  13.7 °C 29.98in /  1015.1hPa SE 4.0mph /  6.4km/h 5.0mph /  8km/h 69% 0.00in /  0mm
03:35 67.1 °F /  19.5 °C 56.6 °F /  13.7 °C 29.98in /  1015.1hPa SE 3.0mph /  4.8km/h 5.0mph /  8km/h 69% 0.00in /  0mm
03:40 67.0 °F /  19.4 °C 56.9 °F /  13.8 °C 29.98in /  1015.1hPa ESE 2.0mph /  3.2km/h 4.0mph /  6.4km/h 70% 0.00in /  0mm
03:45 66.8 °F /  19.3 °C 56.7 °F /  13.7 °C 29.98in /  1015.1hPa SE 3.0mph /  4.8km/h 3.0mph /  4.8km/h 70% 0.00in /  0mm
03:50 66.7 °F /  19.3 °C 56.6 °F /  13.7 °C 29.98in /  1015.1hPa SE 3.0mph /  4.8km/h 5.0mph /  8km/h 70% 0.00in /  0mm
03:55 66.6 °F /  19.2 °C 56.5 °F /  13.6 °C 29.98in /  1015.1hPa SE 3.0mph /  4.8km/h 4.0mph /  6.4km/h 70% 0.00in /  0mm
04:00 66.6 °F /  19.2 °C 56.5 °F /  13.6 °C 29.98in /  1015.1hPa ESE 2.0mph /  3.2km/h 3.0mph /  4.8km/h 70% 0.00in /  0mm
04:05 66.4 °F /  19.1 °C 56.7 °F /  13.7 °C 29.98in /  1015.1hPa ESE 3.0mph /  4.8km/h 3.0mph /  4.8km/h 71% 0.00in /  0mm
04:10 66.0 °F /  18.9 °C 56.7 °F /  13.7 °C 29.98in /  1015.1hPa East 3.0mph /  4.8km/h 3.0mph /  4.8km/h 72% 0.00in /  0mm
04:15 65.9 °F /  18.8 °C 56.6 °F /  13.7 °C 29.98in /  1015.1hPa ESE 3.0mph /  4.8km/h 4.0mph /  6.4km/h 72% 0.00in /  0mm
04:20 65.8 °F /  18.8 °C 56.5 °F /  13.6 °C 29.98in /  1015.1hPa ESE 3.0mph /  4.8km/h 4.0mph /  6.4km/h 72% 0.00in /  0mm
04:25 65.9 °F /  18.8 °C 56.6 °F /  13.7 °C 29.99in /  1015.5hPa ESE 3.0mph /  4.8km/h 4.0mph /  6.4km/h 72% 0.00in /  0mm
04:30 65.9 °F /  18.8 °C 56.6 °F /  13.7 °C 29.99in /  1015.5hPa ESE 3.0mph /  4.8km/h 3.0mph /  4.8km/h 72% 0.00in /  0mm
04:35 65.8 °F /  18.8 °C 56.5 °F /  13.6 °C 29.99in /  1015.5hPa ESE 4.0mph /  6.4km/h 4.0mph /  6.4km/h 72% 0.00in /  0mm
04:36 65.8 °F /  18.8 °C 56.5 °F /  13.6 °C 29.99in /  1015.5hPa ESE 3.0mph /  4.8km/h 4.0mph /  6.4km/h 72% 0.00in /  0mm
04:41 65.5 °F /  18.6 °C 56.6 °F /  13.7 °C 29.98in /  1015.1hPa ESE 4.0mph /  6.4km/h 4.0mph /  6.4km/h 73% 0.00in /  0mm
04:46 65.4 °F /  18.6 °C 56.5 °F /  13.6 °C 29.99in /  1015.5hPa East 3.0mph /  4.8km/h 4.0mph /  6.4km/h 73% 0.00in /  0mm
04:51 65.3 °F /  18.5 °C 56.4 °F /  13.6 °C 29.99in /  1015.5hPa ESE 3.0mph /  4.8km/h 3.0mph /  4.8km/h 73% 0.00in /  0mm
04:56 65.3 °F /  18.5 °C 56.4 °F /  13.6 °C 29.99in /  1015.5hPa East 3.0mph /  4.8km/h 4.0mph /  6.4km/h 73% 0.00in /  0mm
05:01 65.2 °F /  18.4 °C 56.3 °F /  13.5 °C 29.99in /  1015.5hPa ESE 4.0mph /  6.4km/h 4.0mph /  6.4km/h 73% 0.00in /  0mm
05:06 65.1 °F /  18.4 °C 56.6 °F /  13.7 °C 29.99in /  1015.5hPa ESE 3.0mph /  4.8km/h 4.0mph /  6.4km/h 74% 0.00in /  0mm
05:11 65.0 °F /  18.3 °C 56.5 °F /  13.6 °C 29.99in /  1015.5hPa ESE 3.0mph /  4.8km/h 3.0mph /  4.8km/h 74% 0.00in /  0mm
05:16 65.1 °F /  18.4 °C 56.6 °F /  13.7 °C 29.99in /  1015.5hPa ESE 3.0mph /  4.8km/h 4.0mph /  6.4km/h 74% 0.00in /  0mm
05:21 65.1 °F /  18.4 °C 56.6 °F /  13.7 °C 29.99in /  1015.5hPa ESE 3.0mph /  4.8km/h 3.0mph /  4.8km/h 74% 0.00in /  0mm
05:27 65.1 °F /  18.4 °C 56.6 °F /  13.7 °C 29.99in /  1015.5hPa ESE 3.0mph /  4.8km/h 3.0mph /  4.8km/h 74% 0.00in /  0mm
05:32 65.1 °F /  18.4 °C 56.6 °F /  13.7 °C 29.99in /  1015.5hPa ESE 3.0mph /  4.8km/h 4.0mph /  6.4km/h 74% 0.00in /  0mm
05:37 65.0 °F /  18.3 °C 56.9 °F /  13.8 °C 29.99in /  1015.5hPa ESE 3.0mph /  4.8km/h 4.0mph /  6.4km/h 75% 0.00in /  0mm
05:43 65.1 °F /  18.4 °C 56.6 °F /  13.7 °C 29.99in /  1015.5hPa SE 3.0mph /  4.8km/h 4.0mph /  6.4km/h 74% 0.00in /  0mm
05:48 65.4 °F /  18.6 °C 56.9 °F /  13.8 °C 29.99in /  1015.5hPa ESE 3.0mph /  4.8km/h 4.0mph /  6.4km/h 74% 0.00in /  0mm
05:53 65.4 °F /  18.6 °C 56.9 °F /  13.8 °C 29.99in /  1015.5hPa ESE 3.0mph /  4.8km/h 4.0mph /  6.4km/h 74% 0.00in /  0mm
05:58 65.0 °F /  18.3 °C 56.5 °F /  13.6 °C 29.99in /  1015.5hPa ESE 3.0mph /  4.8km/h 4.0mph /  6.4km/h 74% 0.00in /  0mm
06:04 64.7 °F /  18.2 °C 56.6 °F /  13.7 °C 29.99in /  1015.5hPa East 3.0mph /  4.8km/h 3.0mph /  4.8km/h 75% 0.00in /  0mm
06:09 64.6 °F /  18.1 °C 56.9 °F /  13.8 °C 29.99in /  1015.5hPa East 2.0mph /  3.2km/h 3.0mph /  4.8km/h 76% 0.00in /  0mm
06:14 64.4 °F /  18 °C 56.7 °F /  13.7 °C 30.00in /  1015.8hPa East 3.0mph /  4.8km/h 3.0mph /  4.8km/h 76% 0.00in /  0mm
06:19 64.3 °F /  17.9 °C 56.6 °F /  13.7 °C 30.00in /  1015.8hPa East 2.0mph /  3.2km/h 3.0mph /  4.8km/h 76% 0.00in /  0mm
06:24 63.8 °F /  17.7 °C 56.5 °F /  13.6 °C 30.00in /  1015.8hPa ESE 2.0mph /  3.2km/h 2.0mph /  3.2km/h 77% 0.00in /  0mm
06:30 63.0 °F /  17.2 °C 56.0 °F /  13.3 °C 30.00in /  1015.8hPa ESE 2.0mph /  3.2km/h 2.0mph /  3.2km/h 78% 0.00in /  0mm
06:35 62.6 °F /  17 °C 56.0 °F /  13.3 °C 30.00in /  1015.8hPa East 2.0mph /  3.2km/h 3.0mph /  4.8km/h 79% 0.00in /  0mm
06:40 62.2 °F /  16.8 °C 56.0 °F /  13.3 °C 30.00in /  1015.8hPa East 2.0mph /  3.2km/h 4.0mph /  6.4km/h 80% 0.00in /  0mm
06:45 62.0 °F /  16.7 °C 56.1 °F /  13.4 °C 30.00in /  1015.8hPa ESE 3.0mph /  4.8km/h 3.0mph /  4.8km/h 81% 0.00in /  0mm
06:51 61.8 °F /  16.6 °C 55.9 °F /  13.3 °C 30.00in /  1015.8hPa ESE 2.0mph /  3.2km/h 2.0mph /  3.2km/h 81% 0.00in /  0mm
06:56 61.6 °F /  16.4 °C 55.7 °F /  13.2 °C 30.00in /  1015.8hPa East 2.0mph /  3.2km/h 3.0mph /  4.8km/h 81% 0.00in /  0mm
07:02 61.5 °F /  16.4 °C 56.0 °F /  13.3 °C 30.00in /  1015.8hPa ESE 4.0mph /  6.4km/h 4.0mph /  6.4km/h 82% 0.00in /  0mm
07:07 61.5 °F /  16.4 °C 56.0 °F /  13.3 °C 30.00in /  1015.8hPa East 3.0mph /  4.8km/h 3.0mph /  4.8km/h 82% 0.00in /  0mm
07:12 61.4 °F /  16.3 °C 55.9 °F /  13.3 °C 30.00in /  1015.8hPa East 5.0mph /  8km/h 5.0mph /  8km/h 82% 0.00in /  0mm
07:17 61.4 °F /  16.3 °C 55.9 °F /  13.3 °C 30.01in /  1016.1hPa ESE 3.0mph /  4.8km/h 4.0mph /  6.4km/h 82% 0.00in /  0mm
07:22 61.5 °F /  16.4 °C 56.0 °F /  13.3 °C 30.01in /  1016.1hPa East 3.0mph /  4.8km/h 4.0mph /  6.4km/h 82% 0.00in /  0mm
07:27 61.5 °F /  16.4 °C 56.0 °F /  13.3 °C 30.01in /  1016.1hPa East 3.0mph /  4.8km/h 4.0mph /  6.4km/h 82% 0.00in /  0mm
07:33 61.7 °F /  16.5 °C 56.2 °F /  13.4 °C 30.01in /  1016.1hPa ESE 4.0mph /  6.4km/h 5.0mph /  8km/h 82% 0.00in /  0mm
07:38 61.7 °F /  16.5 °C 56.2 °F /  13.4 °C 30.00in /  1015.8hPa ESE 3.0mph /  4.8km/h 6.0mph /  9.7km/h 82% 0.00in /  0mm
07:43 61.8 °F /  16.6 °C 56.2 °F /  13.4 °C 30.01in /  1016.1hPa East 3.0mph /  4.8km/h 5.0mph /  8km/h 82% 0.00in /  0mm
07:49 61.8 °F /  16.6 °C 56.2 °F /  13.4 °C 30.01in /  1016.1hPa ESE 3.0mph /  4.8km/h 4.0mph /  6.4km/h 82% 0.00in /  0mm
07:54 61.8 °F /  16.6 °C 56.2 °F /  13.4 °C 30.01in /  1016.1hPa ESE 3.0mph /  4.8km/h 4.0mph /  6.4km/h 82% 0.00in /  0mm
08:00 61.8 °F /  16.6 °C 56.2 °F /  13.4 °C 30.01in /  1016.1hPa ESE 4.0mph /  6.4km/h 5.0mph /  8km/h 82% 0.00in /  0mm
08:05 61.9 °F /  16.6 °C 56.3 °F /  13.5 °C 30.01in /  1016.1hPa ESE 2.0mph /  3.2km/h 5.0mph /  8km/h 82% 0.00in /  0mm
08:10 61.9 °F /  16.6 °C 56.3 °F /  13.5 °C 30.01in /  1016.1hPa East 4.0mph /  6.4km/h 4.0mph /  6.4km/h 82% 0.00in /  0mm
08:15 61.9 °F /  16.6 °C 56.3 °F /  13.5 °C 30.01in /  1016.1hPa ESE 4.0mph /  6.4km/h 5.0mph /  8km/h 82% 0.00in /  0mm
08:21 62.1 °F /  16.7 °C 56.5 °F /  13.6 °C 30.01in /  1016.1hPa ESE 4.0mph /  6.4km/h 4.0mph /  6.4km/h 82% 0.00in /  0mm
08:26 62.2 °F /  16.8 °C 56.6 °F /  13.7 °C 30.01in /  1016.1hPa ESE 3.0mph /  4.8km/h 5.0mph /  8km/h 82% 0.00in /  0mm
08:31 62.4 °F /  16.9 °C 56.8 °F /  13.8 °C 30.01in /  1016.1hPa ESE 2.0mph /  3.2km/h 7.0mph /  11.3km/h 82% 0.00in /  0mm
08:36 62.3 °F /  16.8 °C 56.7 °F /  13.7 °C 30.01in /  1016.1hPa ESE 4.0mph /  6.4km/h 5.0mph /  8km/h 82% 0.00in /  0mm
08:42 62.4 °F /  16.9 °C 56.8 °F /  13.8 °C 30.01in /  1016.1hPa ESE 4.0mph /  6.4km/h 6.0mph /  9.7km/h 82% 0.00in /  0mm
08:47 62.4 °F /  16.9 °C 56.8 °F /  13.8 °C 30.01in /  1016.1hPa ESE 3.0mph /  4.8km/h 5.0mph /  8km/h 82% 0.00in /  0mm
08:52 62.4 °F /  16.9 °C 56.8 °F /  13.8 °C 30.02in /  1016.5hPa ESE 3.0mph /  4.8km/h 7.0mph /  11.3km/h 82% 0.00in /  0mm
08:57 62.5 °F /  16.9 °C 56.9 °F /  13.8 °C 30.02in /  1016.5hPa ESE 4.0mph /  6.4km/h 6.0mph /  9.7km/h 82% 0.00in /  0mm
09:03 62.7 °F /  17.1 °C 57.1 °F /  13.9 °C 30.02in /  1016.5hPa ESE 4.0mph /  6.4km/h 5.0mph /  8km/h 82% 0.00in /  0mm
09:08 63.3 °F /  17.4 °C 57.4 °F /  14.1 °C 30.02in /  1016.5hPa ESE 6.0mph /  9.7km/h 6.0mph /  9.7km/h 81% 0.00in /  0mm
09:14 63.8 °F /  17.7 °C 57.5 °F /  14.2 °C 30.02in /  1016.5hPa ESE 5.0mph /  8km/h 7.0mph /  11.3km/h 80% 0.00in /  0mm
09:19 64.1 °F /  17.8 °C 57.8 °F /  14.3 °C 30.03in /  1016.8hPa ESE 8.0mph /  12.9km/h 8.0mph /  12.9km/h 80% 0.00in /  0mm
09:24 64.3 °F /  17.9 °C 57.7 °F /  14.3 °C 30.03in /  1016.8hPa SE 3.0mph /  4.8km/h 7.0mph /  11.3km/h 79% 0.00in /  0mm
09:29 64.8 °F /  18.2 °C 58.1 °F /  14.5 °C 30.03in /  1016.8hPa ESE 5.0mph /  8km/h 8.0mph /  12.9km/h 79% 0.00in /  0mm
09:34 65.4 °F /  18.6 °C 57.7 °F /  14.3 °C 30.03in /  1016.8hPa ESE 6.0mph /  9.7km/h 9.0mph /  14.5km/h 76% 0.00in /  0mm
09:40 66.3 °F /  19.1 °C 58.5 °F /  14.7 °C 30.03in /  1016.8hPa ESE 7.0mph /  11.3km/h 7.0mph /  11.3km/h 76% 0.00in /  0mm
09:45 67.0 °F /  19.4 °C 58.8 °F /  14.9 °C 30.03in /  1016.8hPa SE 4.0mph /  6.4km/h 10.0mph /  16.1km/h 75% 0.00in /  0mm
09:51 68.0 °F /  20 °C 58.7 °F /  14.8 °C 30.03in /  1016.8hPa SE 5.0mph /  8km/h 9.0mph /  14.5km/h 72% 0.00in /  0mm
09:56 68.7 °F /  20.4 °C 58.1 °F /  14.5 °C 30.03in /  1016.8hPa SE 7.0mph /  11.3km/h 10.0mph /  16.1km/h 69% 0.00in /  0mm
10:01 69.3 °F /  20.7 °C 58.3 °F /  14.6 °C 30.03in /  1016.8hPa East 9.0mph /  14.5km/h 14.0mph /  22.5km/h 68% 0.00in /  0mm
10:06 69.8 °F /  21 °C 58.8 °F /  14.9 °C 30.03in /  1016.8hPa SE 7.0mph /  11.3km/h 10.0mph /  16.1km/h 68% 0.00in /  0mm
10:12 69.9 °F /  21.1 °C 58.9 °F /  14.9 °C 30.03in /  1016.8hPa SE 11.0mph /  17.7km/h 11.0mph /  17.7km/h 68% 0.00in /  0mm
10:17 69.9 °F /  21.1 °C 58.5 °F /  14.7 °C 30.04in /  1017.2hPa ESE 9.0mph /  14.5km/h 11.0mph /  17.7km/h 67% 0.00in /  0mm
10:22 70.3 °F /  21.3 °C 58.4 °F /  14.7 °C 30.03in /  1016.8hPa SE 7.0mph /  11.3km/h 13.0mph /  20.9km/h 66% 0.00in /  0mm
10:27 70.9 °F /  21.6 °C 58.6 °F /  14.8 °C 30.04in /  1017.2hPa SE 10.0mph /  16.1km/h 12.0mph /  19.3km/h 65% 0.00in /  0mm
10:33 71.7 °F /  22.1 °C 59.3 °F /  15.2 °C 30.04in /  1017.2hPa ESE 8.0mph /  12.9km/h 11.0mph /  17.7km/h 65% 0.00in /  0mm
10:39 72.2 °F /  22.3 °C 60.2 °F /  15.7 °C 30.04in /  1017.2hPa SE 11.0mph /  17.7km/h 13.0mph /  20.9km/h 66% 0.00in /  0mm
10:44 72.8 °F /  22.7 °C 58.6 °F /  14.8 °C 30.04in /  1017.2hPa South 10.0mph /  16.1km/h 15.0mph /  24.1km/h 61% 0.00in /  0mm
10:49 72.7 °F /  22.6 °C 58.5 °F /  14.7 °C 30.04in /  1017.2hPa SSE 11.0mph /  17.7km/h 16.0mph /  25.7km/h 61% 0.00in /  0mm
10:55 72.3 °F /  22.4 °C 58.1 °F /  14.5 °C 30.04in /  1017.2hPa SE 6.0mph /  9.7km/h 15.0mph /  24.1km/h 61% 0.00in /  0mm
11:01 72.2 °F /  22.3 °C 58.5 °F /  14.7 °C 30.04in /  1017.2hPa SE 10.0mph /  16.1km/h 17.0mph /  27.4km/h 62% 0.00in /  0mm
11:06 72.3 °F /  22.4 °C 58.6 °F /  14.8 °C 30.04in /  1017.2hPa SSE 10.0mph /  16.1km/h 15.0mph /  24.1km/h 62% 0.00in /  0mm
11:11 72.7 °F /  22.6 °C 59.4 °F /  15.2 °C 30.04in /  1017.2hPa South 9.0mph /  14.5km/h 12.0mph /  19.3km/h 63% 0.00in /  0mm
11:16 73.3 °F /  22.9 °C 59.5 °F /  15.3 °C 30.05in /  1017.5hPa SSE 11.0mph /  17.7km/h 16.0mph /  25.7km/h 62% 0.00in /  0mm
11:22 74.0 °F /  23.3 °C 60.2 °F /  15.7 °C 30.05in /  1017.5hPa SSE 8.0mph /  12.9km/h 14.0mph /  22.5km/h 62% 0.00in /  0mm
11:27 74.5 °F /  23.6 °C 60.2 °F /  15.7 °C 30.04in /  1017.2hPa SSE 11.0mph /  17.7km/h 12.0mph /  19.3km/h 61% 0.00in /  0mm
11:32 74.9 °F /  23.8 °C 60.1 °F /  15.6 °C 30.05in /  1017.5hPa SE 14.0mph /  22.5km/h 15.0mph /  24.1km/h 60% 0.00in /  0mm
11:37 75.1 °F /  23.9 °C 59.8 °F /  15.4 °C 30.05in /  1017.5hPa SSE 13.0mph /  20.9km/h 16.0mph /  25.7km/h 59% 0.00in /  0mm
11:43 75.2 °F /  24 °C 60.4 °F /  15.8 °C 30.04in /  1017.2hPa SE 12.0mph /  19.3km/h 17.0mph /  27.4km/h 60% 0.00in /  0mm
11:48 75.4 °F /  24.1 °C 60.1 °F /  15.6 °C 30.05in /  1017.5hPa SE 12.0mph /  19.3km/h 15.0mph /  24.1km/h 59% 0.00in /  0mm
11:53 75.6 °F /  24.2 °C 60.3 °F /  15.7 °C 30.04in /  1017.2hPa SE 7.0mph /  11.3km/h 14.0mph /  22.5km/h 59% 0.00in /  0mm
11:58 75.8 °F /  24.3 °C 60.5 °F /  15.8 °C 30.04in /  1017.2hPa SE 7.0mph /  11.3km/h 15.0mph /  24.1km/h 59% 0.00in /  0mm
12:04 75.7 °F /  24.3 °C 60.4 °F /  15.8 °C 30.04in /  1017.2hPa ESE 14.0mph /  22.5km/h 16.0mph /  25.7km/h 59% 0.00in /  0mm
12:09 75.7 °F /  24.3 °C 59.9 °F /  15.5 °C 30.04in /  1017.2hPa SSE 11.0mph /  17.7km/h 18.0mph /  29km/h 58% 0.00in /  0mm
12:14 75.9 °F /  24.4 °C 59.6 °F /  15.3 °C 30.04in /  1017.2hPa SSE 9.0mph /  14.5km/h 21.0mph /  33.8km/h 57% 0.00in /  0mm
12:20 76.2 °F /  24.6 °C 60.4 °F /  15.8 °C 30.04in /  1017.2hPa SE 10.0mph /  16.1km/h 16.0mph /  25.7km/h 58% 0.00in /  0mm
12:26 76.7 °F /  24.8 °C 60.8 °F /  16 °C 30.04in /  1017.2hPa SE 8.0mph /  12.9km/h 13.0mph /  20.9km/h 58% 0.00in /  0mm
12:31 76.8 °F /  24.9 °C 60.4 °F /  15.8 °C 30.04in /  1017.2hPa SE 13.0mph /  20.9km/h 19.0mph /  30.6km/h 57% 0.00in /  0mm
12:36 76.9 °F /  24.9 °C 60.0 °F /  15.6 °C 30.04in /  1017.2hPa ESE 13.0mph /  20.9km/h 17.0mph /  27.4km/h 56% 0.00in /  0mm
12:41 77.0 °F /  25 °C 60.6 °F /  15.9 °C 30.04in /  1017.2hPa SE 16.0mph /  25.7km/h 19.0mph /  30.6km/h 57% 0.00in /  0mm
12:46 77.1 °F /  25.1 °C 60.2 °F /  15.7 °C 30.04in /  1017.2hPa ESE 16.0mph /  25.7km/h 19.0mph /  30.6km/h 56% 0.00in /  0mm
12:51 77.4 °F /  25.2 °C 60.5 °F /  15.8 °C 30.04in /  1017.2hPa SSE 15.0mph /  24.1km/h 19.0mph /  30.6km/h 56% 0.00in /  0mm
12:56 77.8 °F /  25.4 °C 60.9 °F /  16.1 °C 30.03in /  1016.8hPa SE 10.0mph /  16.1km/h 18.0mph /  29km/h 56% 0.00in /  0mm
13:01 78.0 °F /  25.6 °C 60.0 °F /  15.6 °C 30.04in /  1017.2hPa SE 9.0mph /  14.5km/h 18.0mph /  29km/h 54% 0.00in /  0mm
13:06 78.3 °F /  25.7 °C 61.3 °F /  16.3 °C 30.03in /  1016.8hPa SSE 10.0mph /  16.1km/h 11.0mph /  17.7km/h 56% 0.00in /  0mm
13:11 78.7 °F /  25.9 °C 61.7 °F /  16.5 °C 30.03in /  1016.8hPa SSE 10.0mph /  16.1km/h 17.0mph /  27.4km/h 56% 0.00in /  0mm
13:16 78.9 °F /  26.1 °C 60.3 °F /  15.7 °C 30.03in /  1016.8hPa ESE 8.0mph /  12.9km/h 14.0mph /  22.5km/h 53% 0.00in /  0mm
13:22 78.6 °F /  25.9 °C 59.5 °F /  15.3 °C 30.02in /  1016.5hPa ESE 16.0mph /  25.7km/h 18.0mph /  29km/h 52% 0.00in /  0mm
13:27 78.5 °F /  25.8 °C 60.5 °F /  15.8 °C 30.03in /  1016.8hPa SE 16.0mph /  25.7km/h 20.0mph /  32.2km/h 54% 0.00in /  0mm
13:31 78.5 °F /  25.8 °C 59.4 °F /  15.2 °C 30.03in /  1016.8hPa SSE 12.0mph /  19.3km/h 21.0mph /  33.8km/h 52% 0.00in /  0mm
13:37 78.6 °F /  25.9 °C 60.1 °F /  15.6 °C 30.02in /  1016.5hPa SSE 14.0mph /  22.5km/h 17.0mph /  27.4km/h 53% 0.00in /  0mm
13:42 78.8 °F /  26 °C 60.2 °F /  15.7 °C 30.02in /  1016.5hPa ESE 16.0mph /  25.7km/h 21.0mph /  33.8km/h 53% 0.00in /  0mm
13:47 78.7 °F /  25.9 °C 59.6 °F /  15.3 °C 30.02in /  1016.5hPa ESE 18.0mph /  29km/h 20.0mph /  32.2km/h 52% 0.00in /  0mm
13:52 79.0 °F /  26.1 °C 58.8 °F /  14.9 °C 30.02in /  1016.5hPa ESE 15.0mph /  24.1km/h 19.0mph /  30.6km/h 50% 0.00in /  0mm
13:57 78.8 °F /  26 °C 59.2 °F /  15.1 °C 30.01in /  1016.1hPa SE 18.0mph /  29km/h 21.0mph /  33.8km/h 51% 0.00in /  0mm
14:02 79.1 °F /  26.2 °C 59.4 °F /  15.2 °C 30.02in /  1016.5hPa SE 11.0mph /  17.7km/h 19.0mph /  30.6km/h 51% 0.00in /  0mm
14:07 79.2 °F /  26.2 °C 59.5 °F /  15.3 °C 30.01in /  1016.1hPa SE 11.0mph /  17.7km/h 17.0mph /  27.4km/h 51% 0.00in /  0mm
14:12 79.4 °F /  26.3 °C 59.7 °F /  15.4 °C 30.01in /  1016.1hPa SE 11.0mph /  17.7km/h 19.0mph /  30.6km/h 51% 0.00in /  0mm
14:17 79.6 °F /  26.4 °C 59.3 °F /  15.2 °C 30.00in /  1015.8hPa ESE 12.0mph /  19.3km/h 20.0mph /  32.2km/h 50% 0.00in /  0mm
14:22 79.5 °F /  26.4 °C 59.2 °F /  15.1 °C 30.00in /  1015.8hPa ESE 13.0mph /  20.9km/h 17.0mph /  27.4km/h 50% 0.00in /  0mm
14:27 79.9 °F /  26.6 °C 60.2 °F /  15.7 °C 30.00in /  1015.8hPa SE 10.0mph /  16.1km/h 19.0mph /  30.6km/h 51% 0.00in /  0mm
14:32 79.8 °F /  26.6 °C 60.1 °F /  15.6 °C 29.99in /  1015.5hPa SE 10.0mph /  16.1km/h 17.0mph /  27.4km/h 51% 0.00in /  0mm
14:37 80.1 °F /  26.7 °C 59.2 °F /  15.1 °C 29.99in /  1015.5hPa ESE 11.0mph /  17.7km/h 16.0mph /  25.7km/h 49% 0.00in /  0mm
14:42 79.9 °F /  26.6 °C 59.6 °F /  15.3 °C 30.00in /  1015.8hPa SSE 11.0mph /  17.7km/h 19.0mph /  30.6km/h 50% 0.00in /  0mm
14:47 80.1 °F /  26.7 °C 59.8 °F /  15.4 °C 29.99in /  1015.5hPa SE 14.0mph /  22.5km/h 16.0mph /  25.7km/h 50% 0.00in /  0mm
14:52 80.2 °F /  26.8 °C 58.8 °F /  14.9 °C 29.98in /  1015.1hPa SE 10.0mph /  16.1km/h 21.0mph /  33.8km/h 48% 0.00in /  0mm
14:57 80.3 °F /  26.8 °C 58.2 °F /  14.6 °C 29.98in /  1015.1hPa SE 13.0mph /  20.9km/h 19.0mph /  30.6km/h 47% 0.00in /  0mm
15:02 80.4 °F /  26.9 °C 58.9 °F /  14.9 °C 29.98in /  1015.1hPa ESE 14.0mph /  22.5km/h 21.0mph /  33.8km/h 48% 0.00in /  0mm
15:07 80.1 °F /  26.7 °C 58.7 °F /  14.8 °C 29.97in /  1014.8hPa ESE 7.0mph /  11.3km/h 27.0mph /  43.5km/h 48% 0.00in /  0mm
15:12 80.4 °F /  26.9 °C 57.8 °F /  14.3 °C 29.98in /  1015.1hPa SE 13.0mph /  20.9km/h 21.0mph /  33.8km/h 46% 0.00in /  0mm
15:17 80.7 °F /  27.1 °C 58.0 °F /  14.4 °C 29.97in /  1014.8hPa East 13.0mph /  20.9km/h 21.0mph /  33.8km/h 46% 0.00in /  0mm
15:22 80.6 °F /  27 °C 59.7 °F /  15.4 °C 29.97in /  1014.8hPa SE 11.0mph /  17.7km/h 20.0mph /  32.2km/h 49% 0.00in /  0mm
15:27 80.7 °F /  27.1 °C 58.0 °F /  14.4 °C 29.97in /  1014.8hPa ESE 19.0mph /  30.6km/h 19.0mph /  30.6km/h 46% 0.00in /  0mm
15:32 80.6 °F /  27 °C 59.1 °F /  15.1 °C 29.97in /  1014.8hPa SE 10.0mph /  16.1km/h 19.0mph /  30.6km/h 48% 0.00in /  0mm
15:37 80.2 °F /  26.8 °C 58.8 °F /  14.9 °C 29.96in /  1014.4hPa ESE 12.0mph /  19.3km/h 25.0mph /  40.2km/h 48% 0.00in /  0mm
15:42 80.2 °F /  26.8 °C 58.8 °F /  14.9 °C 29.96in /  1014.4hPa SE 13.0mph /  20.9km/h 21.0mph /  33.8km/h 48% 0.00in /  0mm
15:47 80.4 °F /  26.9 °C 57.8 °F /  14.3 °C 29.96in /  1014.4hPa South 13.0mph /  20.9km/h 21.0mph /  33.8km/h 46% 0.00in /  0mm
15:52 80.7 °F /  27.1 °C 58.6 °F /  14.8 °C 29.95in /  1014.1hPa SSE 13.0mph /  20.9km/h 19.0mph /  30.6km/h 47% 0.00in /  0mm
15:57 80.7 °F /  27.1 °C 58.6 °F /  14.8 °C 29.95in /  1014.1hPa SE 14.0mph /  22.5km/h 19.0mph /  30.6km/h 47% 0.00in /  0mm
16:02 80.8 °F /  27.1 °C 58.1 °F /  14.5 °C 29.95in /  1014.1hPa SE 17.0mph /  27.4km/h 18.0mph /  29km/h 46% 0.00in /  0mm
16:07 80.9 °F /  27.2 °C 58.8 °F /  14.9 °C 29.95in /  1014.1hPa SE 13.0mph /  20.9km/h 17.0mph /  27.4km/h 47% 0.00in /  0mm
16:12 80.5 °F /  26.9 °C 58.4 °F /  14.7 °C 29.95in /  1014.1hPa ESE 13.0mph /  20.9km/h 22.0mph /  35.4km/h 47% 0.00in /  0mm
16:17 80.9 °F /  27.2 °C 60.0 °F /  15.6 °C 29.94in /  1013.8hPa SE 9.0mph /  14.5km/h 16.0mph /  25.7km/h 49% 0.00in /  0mm
16:22 81.0 °F /  27.2 °C 59.5 °F /  15.3 °C 29.94in /  1013.8hPa SE 11.0mph /  17.7km/h 22.0mph /  35.4km/h 48% 0.00in /  0mm
16:28 80.7 °F /  27.1 °C 58.6 °F /  14.8 °C 29.94in /  1013.8hPa SSE 11.0mph /  17.7km/h 15.0mph /  24.1km/h 47% 0.00in /  0mm
16:33 80.8 °F /  27.1 °C 59.9 °F /  15.5 °C 29.94in /  1013.8hPa SE 12.0mph /  19.3km/h 16.0mph /  25.7km/h 49% 0.00in /  0mm
16:38 81.4 °F /  27.4 °C 59.8 °F /  15.4 °C 29.94in /  1013.8hPa South 7.0mph /  11.3km/h 16.0mph /  25.7km/h 48% 0.00in /  0mm
16:43 81.9 °F /  27.7 °C 60.9 °F /  16.1 °C 29.93in /  1013.4hPa SE 12.0mph /  19.3km/h 15.0mph /  24.1km/h 49% 0.00in /  0mm
16:48 81.2 °F /  27.3 °C 59.7 °F /  15.4 °C 29.93in /  1013.4hPa SE 11.0mph /  17.7km/h 15.0mph /  24.1km/h 48% 0.00in /  0mm
16:53 81.1 °F /  27.3 °C 57.8 °F /  14.3 °C 29.93in /  1013.4hPa ESE 16.0mph /  25.7km/h 21.0mph /  33.8km/h 45% 0.00in /  0mm
16:58 81.2 °F /  27.3 °C 58.5 °F /  14.7 °C 29.93in /  1013.4hPa ESE 16.0mph /  25.7km/h 22.0mph /  35.4km/h 46% 0.00in /  0mm
17:03 81.0 °F /  27.2 °C 58.9 °F /  14.9 °C 29.93in /  1013.4hPa ESE 14.0mph /  22.5km/h 26.0mph /  41.8km/h 47% 0.00in /  0mm
17:08 81.0 °F /  27.2 °C 58.3 °F /  14.6 °C 29.93in /  1013.4hPa SE 15.0mph /  24.1km/h 21.0mph /  33.8km/h 46% 0.00in /  0mm
17:13 81.0 °F /  27.2 °C 58.3 °F /  14.6 °C 29.93in /  1013.4hPa ESE 14.0mph /  22.5km/h 17.0mph /  27.4km/h 46% 0.00in /  0mm
17:18 81.3 °F /  27.4 °C 58.6 °F /  14.8 °C 29.93in /  1013.4hPa ESE 14.0mph /  22.5km/h 15.0mph /  24.1km/h 46% 0.00in /  0mm
17:23 81.4 °F /  27.4 °C 58.7 °F /  14.8 °C 29.93in /  1013.4hPa SE 11.0mph /  17.7km/h 16.0mph /  25.7km/h 46% 0.00in /  0mm
17:28 81.2 °F /  27.3 °C 57.9 °F /  14.4 °C 29.93in /  1013.4hPa SE 14.0mph /  22.5km/h 22.0mph /  35.4km/h 45% 0.00in /  0mm
17:33 80.9 °F /  27.2 °C 57.6 °F /  14.2 °C 29.93in /  1013.4hPa SSW 8.0mph /  12.9km/h 18.0mph /  29km/h 45% 0.00in /  0mm
17:38 80.8 °F /  27.1 °C 57.5 °F /  14.2 °C 29.92in /  1013.1hPa SE 6.0mph /  9.7km/h 17.0mph /  27.4km/h 45% 0.00in /  0mm
17:43 81.0 °F /  27.2 °C 57.7 °F /  14.3 °C 29.92in /  1013.1hPa ESE 8.0mph /  12.9km/h 16.0mph /  25.7km/h 45% 0.00in /  0mm
17:48 81.3 °F /  27.4 °C 58.0 °F /  14.4 °C 29.92in /  1013.1hPa SE 9.0mph /  14.5km/h 20.0mph /  32.2km/h 45% 0.00in /  0mm
17:53 80.9 °F /  27.2 °C 57.6 °F /  14.2 °C 29.93in /  1013.4hPa SE 12.0mph /  19.3km/h 19.0mph /  30.6km/h 45% 0.00in /  0mm
17:58 81.0 °F /  27.2 °C 57.7 °F /  14.3 °C 29.92in /  1013.1hPa SE 10.0mph /  16.1km/h 15.0mph /  24.1km/h 45% 0.00in /  0mm
18:03 81.1 °F /  27.3 °C 57.8 °F /  14.3 °C 29.93in /  1013.4hPa SE 9.0mph /  14.5km/h 18.0mph /  29km/h 45% 0.00in /  0mm
18:08 81.1 °F /  27.3 °C 57.8 °F /  14.3 °C 29.93in /  1013.4hPa SSE 13.0mph /  20.9km/h 15.0mph /  24.1km/h 45% 0.00in /  0mm
18:13 80.9 °F /  27.2 °C 58.2 °F /  14.6 °C 29.93in /  1013.4hPa ESE 14.0mph /  22.5km/h 14.0mph /  22.5km/h 46% 0.00in /  0mm
18:18 80.7 °F /  27.1 °C 56.8 °F /  13.8 °C 29.93in /  1013.4hPa SE 14.0mph /  22.5km/h 16.0mph /  25.7km/h 44% 0.00in /  0mm
18:23 80.3 °F /  26.8 °C 57.7 °F /  14.3 °C 29.93in /  1013.4hPa SE 7.0mph /  11.3km/h 14.0mph /  22.5km/h 46% 0.00in /  0mm
18:28 80.1 °F /  26.7 °C 57.5 °F /  14.2 °C 29.93in /  1013.4hPa SSE 9.0mph /  14.5km/h 15.0mph /  24.1km/h 46% 0.00in /  0mm
18:34 80.2 °F /  26.8 °C 57.0 °F /  13.9 °C 29.92in /  1013.1hPa SE 7.0mph /  11.3km/h 15.0mph /  24.1km/h 45% 0.00in /  0mm
18:39 80.4 °F /  26.9 °C 57.1 °F /  13.9 °C 29.93in /  1013.4hPa SE 13.0mph /  20.9km/h 18.0mph /  29km/h 45% 0.00in /  0mm
18:44 80.4 °F /  26.9 °C 57.8 °F /  14.3 °C 29.93in /  1013.4hPa SE 7.0mph /  11.3km/h 13.0mph /  20.9km/h 46% 0.00in /  0mm
18:49 79.9 °F /  26.6 °C 57.3 °F /  14.1 °C 29.93in /  1013.4hPa SE 10.0mph /  16.1km/h 12.0mph /  19.3km/h 46% 0.00in /  0mm
18:54 79.7 °F /  26.5 °C 57.1 °F /  13.9 °C 29.93in /  1013.4hPa ESE 9.0mph /  14.5km/h 14.0mph /  22.5km/h 46% 0.00in /  0mm
18:59 79.4 °F /  26.3 °C 56.8 °F /  13.8 °C 29.93in /  1013.4hPa ESE 6.0mph /  9.7km/h 11.0mph /  17.7km/h 46% 0.00in /  0mm
19:04 79.0 °F /  26.1 °C 57.1 °F /  13.9 °C 29.93in /  1013.4hPa SSE 7.0mph /  11.3km/h 11.0mph /  17.7km/h 47% 0.00in /  0mm
19:09 78.9 °F /  26.1 °C 57.0 °F /  13.9 °C 29.93in /  1013.4hPa ESE 9.0mph /  14.5km/h 14.0mph /  22.5km/h 47% 0.00in /  0mm
19:14 78.9 °F /  26.1 °C 56.4 °F /  13.6 °C 29.93in /  1013.4hPa ESE 8.0mph /  12.9km/h 10.0mph /  16.1km/h 46% 0.00in /  0mm
19:19 78.5 °F /  25.8 °C 57.2 °F /  14 °C 29.93in /  1013.4hPa SE 7.0mph /  11.3km/h 10.0mph /  16.1km/h 48% 0.00in /  0mm
19:24 78.2 °F /  25.7 °C 56.9 °F /  13.8 °C 29.93in /  1013.4hPa SE 8.0mph /  12.9km/h 11.0mph /  17.7km/h 48% 0.00in /  0mm
19:29 78.1 °F /  25.6 °C 56.8 °F /  13.8 °C 29.93in /  1013.4hPa ESE 6.0mph /  9.7km/h 11.0mph /  17.7km/h 48% 0.00in /  0mm
19:34 77.8 °F /  25.4 °C 56.6 °F /  13.7 °C 29.93in /  1013.4hPa SE 7.0mph /  11.3km/h 9.0mph /  14.5km/h 48% 0.00in /  0mm
19:39 77.4 °F /  25.2 °C 56.8 °F /  13.8 °C 29.94in /  1013.8hPa SE 4.0mph /  6.4km/h 7.0mph /  11.3km/h 49% 0.00in /  0mm
19:44 77.2 °F /  25.1 °C 56.6 °F /  13.7 °C 29.94in /  1013.8hPa ESE 9.0mph /  14.5km/h 9.0mph /  14.5km/h 49% 0.00in /  0mm
19:49 77.1 °F /  25.1 °C 56.5 °F /  13.6 °C 29.94in /  1013.8hPa ESE 6.0mph /  9.7km/h 9.0mph /  14.5km/h 49% 0.00in /  0mm
19:54 76.9 °F /  24.9 °C 56.3 °F /  13.5 °C 29.94in /  1013.8hPa SE 6.0mph /  9.7km/h 8.0mph /  12.9km/h 49% 0.00in /  0mm
19:59 76.7 °F /  24.8 °C 56.1 °F /  13.4 °C 29.94in /  1013.8hPa SE 6.0mph /  9.7km/h 8.0mph /  12.9km/h 49% 0.00in /  0mm
20:04 76.3 °F /  24.6 °C 56.3 °F /  13.5 °C 29.94in /  1013.8hPa SE 7.0mph /  11.3km/h 7.0mph /  11.3km/h 50% 0.00in /  0mm
20:09 76.3 °F /  24.6 °C 56.3 °F /  13.5 °C 29.94in /  1013.8hPa SE 3.0mph /  4.8km/h 8.0mph /  12.9km/h 50% 0.00in /  0mm
20:14 75.9 °F /  24.4 °C 56.0 °F /  13.3 °C 29.94in /  1013.8hPa ESE 5.0mph /  8km/h 7.0mph /  11.3km/h 50% 0.00in /  0mm
20:19 75.7 °F /  24.3 °C 56.3 °F /  13.5 °C 29.94in /  1013.8hPa ESE 5.0mph /  8km/h 7.0mph /  11.3km/h 51% 0.00in /  0mm
20:24 75.4 °F /  24.1 °C 56.6 °F /  13.7 °C 29.94in /  1013.8hPa ESE 6.0mph /  9.7km/h 7.0mph /  11.3km/h 52% 0.00in /  0mm
20:29 75.1 °F /  23.9 °C 56.3 °F /  13.5 °C 29.94in /  1013.8hPa ESE 4.0mph /  6.4km/h 6.0mph /  9.7km/h 52% 0.00in /  0mm
20:34 75.0 °F /  23.9 °C 56.2 °F /  13.4 °C 29.94in /  1013.8hPa ESE 7.0mph /  11.3km/h 7.0mph /  11.3km/h 52% 0.00in /  0mm
20:39 74.8 °F /  23.8 °C 56.5 °F /  13.6 °C 29.94in /  1013.8hPa ESE 5.0mph /  8km/h 7.0mph /  11.3km/h 53% 0.00in /  0mm
20:45 74.7 °F /  23.7 °C 56.5 °F /  13.6 °C 29.95in /  1014.1hPa ESE 4.0mph /  6.4km/h 8.0mph /  12.9km/h 53% 0.00in /  0mm
20:50 74.5 °F /  23.6 °C 56.8 °F /  13.8 °C 29.95in /  1014.1hPa ESE 6.0mph /  9.7km/h 7.0mph /  11.3km/h 54% 0.00in /  0mm
20:55 74.4 °F /  23.6 °C 56.7 °F /  13.7 °C 29.95in /  1014.1hPa SE 6.0mph /  9.7km/h 8.0mph /  12.9km/h 54% 0.00in /  0mm
21:00 74.2 °F /  23.4 °C 56.5 °F /  13.6 °C 29.95in /  1014.1hPa SE 5.0mph /  8km/h 8.0mph /  12.9km/h 54% 0.00in /  0mm
21:05 74.1 °F /  23.4 °C 56.4 °F /  13.6 °C 29.95in /  1014.1hPa ESE 9.0mph /  14.5km/h 9.0mph /  14.5km/h 54% 0.00in /  0mm
21:10 74.1 °F /  23.4 °C 56.4 °F /  13.6 °C 29.95in /  1014.1hPa ESE 5.0mph /  8km/h 6.0mph /  9.7km/h 54% 0.00in /  0mm
21:15 73.7 °F /  23.2 °C 56.5 °F /  13.6 °C 29.96in /  1014.4hPa ESE 4.0mph /  6.4km/h 5.0mph /  8km/h 55% 0.00in /  0mm
21:20 73.6 °F /  23.1 °C 56.5 °F /  13.6 °C 29.96in /  1014.4hPa ESE 4.0mph /  6.4km/h 7.0mph /  11.3km/h 55% 0.00in /  0mm
21:25 73.5 °F /  23.1 °C 56.4 °F /  13.6 °C 29.96in /  1014.4hPa ESE 7.0mph /  11.3km/h 7.0mph /  11.3km/h 55% 0.00in /  0mm
21:30 73.5 °F /  23.1 °C 55.9 °F /  13.3 °C 29.96in /  1014.4hPa ESE 4.0mph /  6.4km/h 8.0mph /  12.9km/h 54% 0.00in /  0mm
21:35 73.5 °F /  23.1 °C 55.9 °F /  13.3 °C 29.96in /  1014.4hPa East 5.0mph /  8km/h 6.0mph /  9.7km/h 54% 0.00in /  0mm
21:40 73.4 °F /  23 °C 56.3 °F /  13.5 °C 29.96in /  1014.4hPa ESE 5.0mph /  8km/h 5.0mph /  8km/h 55% 0.00in /  0mm
21:45 73.4 °F /  23 °C 56.3 °F /  13.5 °C 29.96in /  1014.4hPa ESE 6.0mph /  9.7km/h 6.0mph /  9.7km/h 55% 0.00in /  0mm
21:50 73.2 °F /  22.9 °C 56.1 °F /  13.4 °C 29.97in /  1014.8hPa ESE 5.0mph /  8km/h 7.0mph /  11.3km/h 55% 0.00in /  0mm
21:55 73.0 °F /  22.8 °C 55.9 °F /  13.3 °C 29.97in /  1014.8hPa ESE 5.0mph /  8km/h 6.0mph /  9.7km/h 55% 0.00in /  0mm
22:00 72.8 °F /  22.7 °C 56.2 °F /  13.4 °C 29.97in /  1014.8hPa ESE 5.0mph /  8km/h 8.0mph /  12.9km/h 56% 0.00in /  0mm
22:02 72.7 °F /  22.6 °C 56.1 °F /  13.4 °C 29.97in /  1014.8hPa ESE 4.0mph /  6.4km/h 8.0mph /  12.9km/h 56% 0.00in /  0mm
22:07 72.5 °F /  22.5 °C 55.9 °F /  13.3 °C 29.97in /  1014.8hPa ESE 5.0mph /  8km/h 6.0mph /  9.7km/h 56% 0.00in /  0mm
22:12 72.6 °F /  22.6 °C 56.0 °F /  13.3 °C 29.97in /  1014.8hPa SE 5.0mph /  8km/h 7.0mph /  11.3km/h 56% 0.00in /  0mm
22:17 72.7 °F /  22.6 °C 55.6 °F /  13.1 °C 29.97in /  1014.8hPa ESE 6.0mph /  9.7km/h 8.0mph /  12.9km/h 55% 0.00in /  0mm
22:22 72.7 °F /  22.6 °C 55.6 °F /  13.1 °C 29.98in /  1015.1hPa ESE 4.0mph /  6.4km/h 7.0mph /  11.3km/h 55% 0.00in /  0mm
22:27 72.5 °F /  22.5 °C 55.9 °F /  13.3 °C 29.98in /  1015.1hPa ESE 5.0mph /  8km/h 8.0mph /  12.9km/h 56% 0.00in /  0mm
22:32 72.5 °F /  22.5 °C 55.4 °F /  13 °C 29.98in /  1015.1hPa ESE 6.0mph /  9.7km/h 9.0mph /  14.5km/h 55% 0.00in /  0mm
22:37 72.4 °F /  22.4 °C 55.8 °F /  13.2 °C 29.98in /  1015.1hPa ESE 5.0mph /  8km/h 7.0mph /  11.3km/h 56% 0.00in /  0mm
22:42 72.1 °F /  22.3 °C 55.6 °F /  13.1 °C 29.98in /  1015.1hPa ESE 5.0mph /  8km/h 6.0mph /  9.7km/h 56% 0.00in /  0mm
22:47 71.6 °F /  22 °C 55.6 °F /  13.1 °C 29.98in /  1015.1hPa ESE 5.0mph /  8km/h 5.0mph /  8km/h 57% 0.00in /  0mm
22:52 71.4 °F /  21.9 °C 55.4 °F /  13 °C 29.98in /  1015.1hPa SE 4.0mph /  6.4km/h 6.0mph /  9.7km/h 57% 0.00in /  0mm
22:57 71.2 °F /  21.8 °C 55.7 °F /  13.2 °C 29.98in /  1015.1hPa ESE 4.0mph /  6.4km/h 5.0mph /  8km/h 58% 0.00in /  0mm
23:02 71.0 °F /  21.7 °C 55.5 °F /  13.1 °C 29.98in /  1015.1hPa ESE 5.0mph /  8km/h 5.0mph /  8km/h 58% 0.00in /  0mm
23:07 71.0 °F /  21.7 °C 55.5 °F /  13.1 °C 29.98in /  1015.1hPa ESE 5.0mph /  8km/h 7.0mph /  11.3km/h 58% 0.00in /  0mm
23:12 70.9 °F /  21.6 °C 55.4 °F /  13 °C 29.98in /  1015.1hPa ESE 4.0mph /  6.4km/h 7.0mph /  11.3km/h 58% 0.00in /  0mm
23:17 70.9 °F /  21.6 °C 55.9 °F /  13.3 °C 29.98in /  1015.1hPa ESE 3.0mph /  4.8km/h 7.0mph /  11.3km/h 59% 0.00in /  0mm
23:22 70.9 °F /  21.6 °C 55.4 °F /  13 °C 29.99in /  1015.5hPa ESE 5.0mph /  8km/h 7.0mph /  11.3km/h 58% 0.00in /  0mm
23:27 71.0 °F /  21.7 °C 55.5 °F /  13.1 °C 29.99in /  1015.5hPa ESE 4.0mph /  6.4km/h 7.0mph /  11.3km/h 58% 0.00in /  0mm
23:32 70.9 °F /  21.6 °C 55.9 °F /  13.3 °C 29.99in /  1015.5hPa ESE 5.0mph /  8km/h 5.0mph /  8km/h 59% 0.00in /  0mm
23:37 70.8 °F /  21.6 °C 55.3 °F /  12.9 °C 29.99in /  1015.5hPa ESE 6.0mph /  9.7km/h 8.0mph /  12.9km/h 58% 0.00in /  0mm
23:42 71.1 °F /  21.7 °C 55.1 °F /  12.8 °C 29.99in /  1015.5hPa ESE 7.0mph /  11.3km/h 10.0mph /  16.1km/h 57% 0.00in /  0mm
23:47 71.3 °F /  21.8 °C 55.3 °F /  12.9 °C 29.99in /  1015.5hPa ESE 8.0mph /  12.9km/h 8.0mph /  12.9km/h 57% 0.00in /  0mm
23:52 71.4 °F /  21.9 °C 55.4 °F /  13 °C 29.99in /  1015.5hPa SE 5.0mph /  8km/h 9.0mph /  14.5km/h 57% 0.00in /  0mm
23:57 71.3 °F /  21.8 °C 55.3 °F /  12.9 °C 29.99in /  1015.5hPa ESE 5.0mph /  8km/h 10.0mph /  16.1km/h 57% 0.00in /  0mm
Compliments of Weather Underground